createdAt,value
2023-03-12T00:00:50.745Z,84667.66
2023-03-12T00:03:18.113Z,84666.44
2023-03-12T00:05:45.709Z,84657.66
2023-03-12T00:08:14.752Z,84626.31
2023-03-12T00:10:42.781Z,84646.09
2023-03-12T00:13:09.849Z,84597.44
2023-03-12T00:15:39.644Z,84678.44
2023-03-12T00:18:06.923Z,84651.28
2023-03-12T00:20:33.995Z,84673.00
2023-03-12T00:23:01.108Z,84674.47
2023-03-12T00:25:28.345Z,84649.44
2023-03-12T00:27:55.365Z,84668.31
2023-03-12T00:30:22.593Z,84666.31
2023-03-12T00:32:54.004Z,84636.69
2023-03-12T00:35:21.080Z,84679.53
2023-03-12T00:37:48.141Z,84648.91
2023-03-12T00:40:15.210Z,84659.81
2023-03-12T00:42:42.290Z,84667.94
2023-03-12T00:45:09.706Z,84641.00
2023-03-12T00:47:36.963Z,84640.97
2023-03-12T00:50:04.406Z,84624.97
2023-03-12T00:52:31.511Z,84658.91
2023-03-12T00:55:03.222Z,84665.66
2023-03-12T00:57:30.267Z,84635.81
2023-03-12T00:59:57.428Z,84659.44
2023-03-12T01:02:24.679Z,84658.66
2023-03-12T01:04:51.763Z,84661.47
2023-03-12T01:07:18.929Z,84646.47
2023-03-12T01:09:45.956Z,84665.50
2023-03-12T01:12:13.044Z,84662.84
2023-03-12T01:14:40.353Z,84657.22
2023-03-12T01:17:08.073Z,84678.31
2023-03-12T01:19:35.043Z,84630.75
2023-03-12T01:22:02.264Z,84651.84
2023-03-12T01:24:29.502Z,84657.44
2023-03-12T01:26:56.829Z,84666.78
2023-03-12T01:29:26.341Z,84660.13
2023-03-12T01:31:53.492Z,84666.38
2023-03-12T01:34:20.488Z,84662.25
2023-03-12T01:36:48.091Z,84674.66
2023-03-12T01:39:15.587Z,84667.78
2023-03-12T01:41:42.660Z,84658.88
2023-03-12T01:44:14.111Z,84662.56
2023-03-12T01:46:43.453Z,84649.63
2023-03-12T01:49:29.554Z,84662.75
2023-03-12T01:52:13.328Z,84661.34
2023-03-12T01:54:57.984Z,84652.06
2023-03-12T01:57:56.154Z,84664.94
2023-03-12T02:00:26.462Z,84642.06
2023-03-12T02:03:01.605Z,84636.50
2023-03-12T02:05:35.215Z,84664.41
2023-03-12T02:08:02.324Z,84649.50
2023-03-12T02:10:29.520Z,84658.91
2023-03-12T02:12:56.737Z,84666.28
2023-03-12T02:15:24.132Z,84635.84
2023-03-12T02:17:51.178Z,84654.22
2023-03-12T02:20:27.876Z,84639.28
2023-03-12T02:23:12.874Z,84677.97
2023-03-12T02:25:44.094Z,84678.00
2023-03-12T02:28:15.822Z,84640.59
2023-03-12T02:30:47.304Z,84682.94
2023-03-12T02:33:16.307Z,84687.03
2023-03-12T02:35:45.634Z,84620.38
2023-03-12T02:38:34.530Z,84617.69
2023-03-12T02:41:10.250Z,84704.97
2023-03-12T02:43:38.923Z,84676.44
2023-03-12T02:46:07.041Z,84666.97
2023-03-12T02:48:34.246Z,84713.25
2023-03-12T02:51:04.640Z,84706.63
2023-03-12T02:53:34.717Z,84718.31
2023-03-12T02:56:02.131Z,84674.84
2023-03-12T02:58:29.260Z,84719.66
2023-03-12T03:00:56.460Z,84708.22
2023-03-12T03:03:23.631Z,84728.84
2023-03-12T03:05:50.673Z,84728.81
2023-03-12T03:08:17.923Z,84724.78
2023-03-12T03:10:45.172Z,84697.69
2023-03-12T03:13:12.511Z,84728.34
2023-03-12T03:15:40.285Z,84711.34
2023-03-12T03:18:07.390Z,84702.50
2023-03-12T03:20:34.950Z,84693.78
2023-03-12T03:23:02.067Z,84753.06
2023-03-12T03:25:29.344Z,84714.34
2023-03-12T03:27:56.544Z,84710.44
2023-03-12T03:30:23.684Z,84768.34
2023-03-12T03:32:52.191Z,84758.09
2023-03-12T03:35:19.911Z,84770.41
2023-03-12T03:37:47.163Z,84771.66
2023-03-12T03:40:14.255Z,84765.06
2023-03-12T03:42:41.421Z,84770.56
2023-03-12T03:45:10.598Z,84754.31
2023-03-12T03:47:39.221Z,84778.09
2023-03-12T03:50:06.828Z,84739.31
2023-03-12T03:52:34.401Z,84774.75
2023-03-12T03:55:01.644Z,84777.44
2023-03-12T03:57:29.790Z,84739.41
2023-03-12T04:00:00.922Z,84788.38
2023-03-12T04:02:29.557Z,84735.34
2023-03-12T04:04:59.966Z,84785.75
2023-03-12T04:07:28.674Z,84764.69
2023-03-12T04:09:56.352Z,84784.47
2023-03-12T04:12:26.098Z,84798.16
2023-03-12T04:14:53.616Z,84755.97
2023-03-12T04:17:21.430Z,84806.41
2023-03-12T04:19:48.798Z,84807.88
2023-03-12T04:22:16.211Z,84769.06
2023-03-12T04:24:43.458Z,84782.03
2023-03-12T04:27:10.474Z,84768.38
2023-03-12T04:29:39.519Z,84745.28
2023-03-12T04:32:07.289Z,84822.31
2023-03-12T04:34:35.268Z,84832.63
2023-03-12T04:37:03.142Z,84812.16
2023-03-12T04:39:30.702Z,84813.59
2023-03-12T04:41:57.908Z,84805.38
2023-03-12T04:44:26.286Z,84832.66
2023-03-12T04:46:53.550Z,84834.00
2023-03-12T04:49:23.695Z,84825.78
2023-03-12T04:51:50.816Z,84808.16
2023-03-12T04:54:21.297Z,84801.34
2023-03-12T04:56:49.635Z,84844.34
2023-03-12T04:59:17.098Z,84846.41
2023-03-12T05:01:45.800Z,84803.44
2023-03-12T05:04:18.994Z,84802.75
2023-03-12T05:06:46.405Z,84838.94
2023-03-12T05:09:13.512Z,84864.84
2023-03-12T05:11:41.265Z,84854.63
2023-03-12T05:14:16.784Z,84793.88
2023-03-12T05:16:45.425Z,84842.34
2023-03-12T05:19:12.616Z,84883.97
2023-03-12T05:21:43.235Z,84882.59
2023-03-12T05:24:12.965Z,84845.03
2023-03-12T05:26:40.346Z,84817.75
2023-03-12T05:29:17.091Z,84888.75
2023-03-12T05:31:45.025Z,84850.50
2023-03-12T05:34:13.961Z,84891.47
2023-03-12T05:36:43.482Z,84887.38
2023-03-12T05:39:14.588Z,84849.84
2023-03-12T05:41:41.672Z,84816.41
2023-03-12T05:44:16.287Z,84874.41
2023-03-12T05:46:47.309Z,84876.44
2023-03-12T05:49:14.575Z,84904.44
2023-03-12T05:51:43.491Z,84873.72
2023-03-12T05:54:11.155Z,84892.84
2023-03-12T05:56:38.617Z,84894.19
2023-03-12T05:59:06.863Z,84902.38
2023-03-12T06:01:34.436Z,84916.03
2023-03-12T06:04:03.531Z,84922.88
2023-03-12T06:06:32.304Z,84922.19
2023-03-12T06:08:59.787Z,84938.59
2023-03-12T06:11:27.120Z,84914.66
2023-03-12T06:13:54.610Z,84883.25
2023-03-12T06:16:24.422Z,84936.53
2023-03-12T06:19:00.992Z,84924.25
2023-03-12T06:21:31.567Z,84957.03
2023-03-12T06:24:00.398Z,84959.09
2023-03-12T06:26:32.519Z,84972.75
2023-03-12T06:28:59.502Z,84963.84
2023-03-12T06:31:26.564Z,84924.94
2023-03-12T06:33:54.044Z,84970.00
2023-03-12T06:36:21.561Z,84980.94
2023-03-12T06:38:48.505Z,84933.13
2023-03-12T06:41:17.696Z,84980.25
2023-03-12T06:43:45.741Z,84944.75
2023-03-12T06:46:15.110Z,84954.28
2023-03-12T06:48:42.270Z,84957.03
2023-03-12T06:51:11.126Z,84993.91
2023-03-12T06:53:41.864Z,85006.22
2023-03-12T06:56:10.257Z,84995.28
2023-03-12T06:58:37.813Z,84991.19
2023-03-12T07:01:05.547Z,84994.63
2023-03-12T07:03:32.904Z,85019.88
2023-03-12T07:06:00.413Z,84978.88
2023-03-12T07:08:31.467Z,85022.63
2023-03-12T07:11:01.850Z,84993.91
2023-03-12T07:13:29.687Z,85012.38
2023-03-12T07:15:56.948Z,84986.41
2023-03-12T07:18:24.028Z,85000.75
2023-03-12T07:20:52.778Z,85017.16
2023-03-12T07:23:20.283Z,85022.59
2023-03-12T07:25:48.077Z,85022.63
2023-03-12T07:28:16.408Z,85025.34
2023-03-12T07:30:50.622Z,84999.38
2023-03-12T07:33:20.419Z,84980.94
2023-03-12T07:35:51.295Z,85003.47
2023-03-12T07:38:19.227Z,84998.00
2023-03-12T07:40:51.519Z,85038.34
2023-03-12T07:43:20.473Z,85027.41
2023-03-12T07:45:50.189Z,85029.44
2023-03-12T07:48:20.055Z,84985.03
2023-03-12T07:50:47.738Z,85028.75
2023-03-12T07:53:15.000Z,85042.41
2023-03-12T07:55:46.162Z,84991.88
2023-03-12T07:58:14.202Z,85024.63
2023-03-12T08:00:41.778Z,85027.38
2023-03-12T08:03:09.170Z,85040.34
2023-03-12T08:05:36.588Z,85047.16
2023-03-12T08:08:03.762Z,85030.75
2023-03-12T08:10:31.114Z,85052.63
2023-03-12T08:12:58.147Z,85038.97
2023-03-12T08:15:25.539Z,85059.50
2023-03-12T08:17:52.569Z,85067.72
2023-03-12T08:20:19.652Z,85064.28
2023-03-12T08:22:46.683Z,85043.09
2023-03-12T08:25:13.910Z,85019.16
2023-03-12T08:27:41.412Z,85060.84
2023-03-12T08:30:09.121Z,85048.53
2023-03-12T08:32:36.523Z,85038.97
2023-03-12T08:35:05.456Z,85046.47
2023-03-12T08:37:33.147Z,85056.72
2023-03-12T08:40:00.497Z,85056.69
2023-03-12T08:42:27.470Z,85043.75
2023-03-12T08:44:54.545Z,85049.88
2023-03-12T08:47:21.657Z,85034.09
2023-03-12T08:49:48.771Z,85031.34
2023-03-12T08:52:15.901Z,85034.69
2023-03-12T08:54:43.014Z,85012.78
2023-03-12T08:57:10.699Z,85012.09
2023-03-12T08:59:37.866Z,85031.88
2023-03-12T09:02:05.464Z,85034.56
2023-03-12T09:04:32.549Z,85034.50
2023-03-12T09:07:01.725Z,85031.72
2023-03-12T09:09:28.793Z,85026.28
2023-03-12T09:11:55.881Z,85005.75
2023-03-12T09:14:57.985Z,84985.28
2023-03-12T09:17:10.139Z,85014.53
2023-03-12T09:19:37.098Z,85002.16
2023-03-12T09:22:04.042Z,85028.63
2023-03-12T09:24:31.348Z,84980.78
2023-03-12T09:26:58.535Z,85029.81
2023-03-12T09:29:25.564Z,85025.75
2023-03-12T09:31:52.594Z,85012.00
2023-03-12T09:34:19.608Z,85044.81
2023-03-12T09:36:46.679Z,84939.06
2023-03-12T09:39:13.647Z,85038.00
2023-03-12T09:41:44.245Z,85037.84
2023-03-12T09:44:43.953Z,85037.03
2023-03-12T09:47:29.344Z,85028.78
2023-03-12T09:50:03.436Z,85006.28
2023-03-12T09:52:38.008Z,85021.19
2023-03-12T09:55:15.793Z,85037.56
2023-03-12T09:57:44.432Z,85019.72
2023-03-12T10:00:14.439Z,85003.25
2023-03-12T10:03:00.053Z,85042.66
2023-03-12T10:05:38.832Z,84998.38
2023-03-12T10:08:49.890Z,85029.03
2023-03-12T10:11:49.748Z,85000.81
2023-03-12T10:14:42.880Z,85042.97
2023-03-12T10:17:32.673Z,85054.50
2023-03-12T10:20:38.408Z,85046.25
2023-03-12T10:23:39.531Z,85057.06
2023-03-12T10:26:15.661Z,85056.22
2023-03-12T10:28:48.829Z,85051.34
2023-03-12T10:31:37.291Z,85058.00
2023-03-12T10:34:18.507Z,84996.53
2023-03-12T10:36:46.622Z,85041.38
2023-03-12T10:39:20.353Z,84994.94
2023-03-12T10:41:49.375Z,85061.44
2023-03-12T10:44:23.348Z,85043.72
2023-03-12T10:47:00.827Z,85003.50
2023-03-12T10:49:31.259Z,85062.66
2023-03-12T10:52:05.479Z,85057.03
2023-03-12T10:54:33.927Z,85044.72
2023-03-12T10:57:01.362Z,85015.97
2023-03-12T10:59:32.282Z,85045.91
2023-03-12T11:02:00.186Z,85038.31
2023-03-12T11:04:30.687Z,85032.72
2023-03-12T11:07:05.692Z,85026.50
2023-03-12T11:09:33.125Z,84927.03
2023-03-12T11:12:00.267Z,85033.75
2023-03-12T11:14:29.464Z,85033.06
2023-03-12T11:16:57.532Z,85038.41
2023-03-12T11:19:33.238Z,84957.91
2023-03-12T11:22:03.834Z,85011.00
2023-03-12T11:24:35.632Z,84998.59
2023-03-12T11:27:26.114Z,85018.94
2023-03-12T11:29:54.676Z,85006.53
2023-03-12T11:32:31.476Z,85019.84
2023-03-12T11:34:59.298Z,85015.63
2023-03-12T11:37:54.425Z,85018.47
2023-03-12T11:40:55.817Z,85000.56
2023-03-12T11:43:51.180Z,85025.06
2023-03-12T11:46:18.184Z,85015.94
2023-03-12T11:49:17.594Z,85004.69
2023-03-12T11:52:06.063Z,84997.72
2023-03-12T11:54:55.064Z,85003.66
2023-03-12T11:57:59.771Z,85019.81
2023-03-12T12:01:04.561Z,84997.72
2023-03-12T12:03:49.801Z,85009.78
2023-03-12T12:06:35.014Z,85023.34
2023-03-12T12:09:47.065Z,85026.47
2023-03-12T12:12:32.555Z,85020.28
2023-03-12T12:15:28.906Z,85022.94
2023-03-12T12:18:06.063Z,84984.72
2023-03-12T12:20:49.046Z,84978.16
2023-03-12T12:23:33.363Z,85006.47
2023-03-12T12:26:11.532Z,85021.03
2023-03-12T12:28:47.991Z,85023.06
2023-03-12T12:31:33.396Z,85027.31
2023-03-12T12:34:12.383Z,85025.88
2023-03-12T12:36:39.359Z,85008.16
2023-03-12T12:39:19.295Z,85033.50
2023-03-12T12:41:56.050Z,85027.50
2023-03-12T12:44:30.299Z,85035.63
2023-03-12T12:47:03.966Z,85004.56
2023-03-12T12:49:47.136Z,84997.78
2023-03-12T12:52:21.330Z,85040.28
2023-03-12T12:55:11.392Z,85046.63
2023-03-12T12:57:42.953Z,85044.50
2023-03-12T13:00:31.499Z,85057.47
2023-03-12T13:02:59.167Z,85050.31
2023-03-12T13:05:29.490Z,85049.06
2023-03-12T13:07:56.829Z,85067.69
2023-03-12T13:10:33.062Z,85058.66
2023-03-12T13:13:13.711Z,85061.41
2023-03-12T13:15:44.022Z,85042.38
2023-03-12T13:18:26.421Z,85068.41
2023-03-12T13:20:53.427Z,85071.06
2023-03-12T13:23:46.131Z,85031.00
2023-03-12T13:26:27.267Z,85073.13
2023-03-12T13:29:06.031Z,85081.28
2023-03-12T13:31:40.904Z,85043.34
2023-03-12T13:34:20.219Z,85082.44
2023-03-12T13:36:52.230Z,85091.50
2023-03-12T13:39:30.035Z,85067.66
2023-03-12T13:41:58.769Z,85095.81
2023-03-12T13:44:40.511Z,85046.41
2023-03-12T13:47:28.891Z,85090.91
2023-03-12T13:50:25.552Z,85097.91
2023-03-12T13:53:07.557Z,85027.63
2023-03-12T13:55:37.715Z,85075.88
2023-03-12T13:58:13.570Z,85064.81
2023-03-12T14:00:55.236Z,85070.31
2023-03-12T14:03:27.899Z,85109.03
2023-03-12T14:06:01.091Z,85055.47
2023-03-12T14:08:33.802Z,85108.50
2023-03-12T14:11:08.490Z,85107.25
2023-03-12T14:13:35.640Z,85115.63
2023-03-12T14:16:25.996Z,85098.53
2023-03-12T14:18:54.177Z,85089.06
2023-03-12T14:21:23.879Z,85061.44
2023-03-12T14:23:57.765Z,85113.97
2023-03-12T14:26:29.291Z,85087.16
2023-03-12T14:29:09.909Z,85100.19
2023-03-12T14:31:43.556Z,85132.25
2023-03-12T14:34:22.818Z,85088.13
2023-03-12T14:36:55.650Z,85140.22
2023-03-12T14:39:33.314Z,85154.47
2023-03-12T14:42:06.750Z,85149.06
2023-03-12T14:44:37.410Z,85145.00
2023-03-12T14:47:07.836Z,85091.47
2023-03-12T14:49:44.452Z,85157.94
2023-03-12T14:52:21.111Z,85159.44
2023-03-12T14:54:59.596Z,85101.94
2023-03-12T14:57:27.219Z,85096.66
2023-03-12T14:59:59.806Z,85171.81
2023-03-12T15:02:28.948Z,85184.63
2023-03-12T15:05:00.068Z,85142.28
2023-03-12T15:10:31.446Z,85174.50
2023-03-12T15:13:01.531Z,85184.19
2023-03-12T15:15:47.792Z,85167.16
2023-03-12T15:18:33.919Z,85194.56
2023-03-12T15:21:03.531Z,85167.41
2023-03-12T15:23:33.852Z,85205.81
2023-03-12T15:26:23.118Z,85201.88
2023-03-12T15:29:02.091Z,85203.19
2023-03-12T15:31:46.066Z,85210.31
2023-03-12T15:34:39.802Z,85214.31
2023-03-12T15:37:51.177Z,85210.31
2023-03-12T15:40:25.203Z,85211.72
2023-03-12T15:42:57.515Z,85220.97
2023-03-12T15:45:34.597Z,85230.56
2023-03-12T15:48:04.488Z,85229.94
2023-03-12T15:50:37.910Z,85228.69
2023-03-12T15:53:13.903Z,85164.44
2023-03-12T15:55:45.306Z,85152.88
2023-03-12T15:58:34.665Z,85185.69
2023-03-12T16:01:16.832Z,85248.72
2023-03-12T16:03:45.733Z,85197.47
2023-03-12T16:06:18.259Z,85261.84
2023-03-12T16:08:48.572Z,85268.00
2023-03-12T16:11:18.877Z,85279.00
2023-03-12T16:13:49.298Z,85272.16
2023-03-12T16:16:16.583Z,85247.53
2023-03-12T16:18:43.880Z,85278.34
2023-03-12T16:21:11.799Z,85294.06
2023-03-12T16:23:39.490Z,85303.03
2023-03-12T16:26:06.987Z,85294.81
2023-03-12T16:28:35.926Z,85311.31
2023-03-12T16:31:03.214Z,85308.53
2023-03-12T16:33:30.221Z,85319.50
2023-03-12T16:35:57.860Z,85322.91
2023-03-12T16:38:24.921Z,85322.91
2023-03-12T16:40:53.068Z,85329.13
2023-03-12T16:43:25.431Z,85338.72
2023-03-12T16:45:54.320Z,85292.88
2023-03-12T16:48:26.703Z,85353.84
2023-03-12T16:50:56.685Z,85360.69
2023-03-12T16:53:24.755Z,85364.78
2023-03-12T16:55:55.743Z,85375.09
2023-03-12T16:58:24.802Z,85367.53
2023-03-12T17:00:53.930Z,85340.81
2023-03-12T17:03:35.486Z,85374.38
2023-03-12T17:06:04.181Z,85392.91
2023-03-12T17:08:31.385Z,85390.13
2023-03-12T17:10:59.869Z,85341.47
2023-03-12T17:13:29.024Z,85397.00
2023-03-12T17:15:56.885Z,85408.66
2023-03-12T17:18:24.584Z,85339.41
2023-03-12T17:20:52.052Z,85407.28
2023-03-12T17:23:19.596Z,85378.47
2023-03-12T17:25:46.856Z,85334.59
2023-03-12T17:28:15.541Z,85379.78
2023-03-12T17:30:43.211Z,85380.50
2023-03-12T17:33:13.944Z,85429.16
2023-03-12T17:35:42.126Z,85371.56
2023-03-12T17:38:09.820Z,85361.97
2023-03-12T17:40:43.760Z,85419.53
2023-03-12T17:43:12.701Z,85447.66
2023-03-12T17:45:40.030Z,85411.97
2023-03-12T17:48:07.312Z,85447.00
2023-03-12T17:50:34.588Z,85414.03
2023-03-12T17:53:01.584Z,85385.19
2023-03-12T17:55:28.633Z,85464.72
2023-03-12T17:57:55.650Z,85427.63
2023-03-12T18:00:25.842Z,85474.34
2023-03-12T18:02:53.035Z,85408.34
2023-03-12T18:05:20.215Z,85452.31
2023-03-12T18:07:48.574Z,85419.34
2023-03-12T18:10:15.726Z,85468.72
2023-03-12T18:12:43.104Z,85478.41
2023-03-12T18:15:13.314Z,85493.50
2023-03-12T18:17:41.730Z,85442.66
2023-03-12T18:20:12.592Z,85459.09
2023-03-12T18:22:40.301Z,85421.34
2023-03-12T18:25:08.242Z,85504.41
2023-03-12T18:27:35.331Z,85468.03
2023-03-12T18:30:02.380Z,85487.84
2023-03-12T18:32:29.356Z,85506.44
2023-03-12T18:34:56.967Z,85509.19
2023-03-12T18:37:24.119Z,85505.78
2023-03-12T18:39:51.156Z,85516.03
2023-03-12T18:42:18.262Z,85485.81
2023-03-12T18:44:45.454Z,85443.97
2023-03-12T18:47:12.494Z,85485.84
2023-03-12T18:49:39.563Z,85481.72
2023-03-12T18:52:06.628Z,85522.22
2023-03-12T18:54:33.933Z,85531.88
2023-03-12T18:57:01.239Z,85509.94
2023-03-12T18:59:30.716Z,85502.41
2023-03-12T19:01:59.196Z,85498.97
2023-03-12T19:04:26.445Z,85520.28
2023-03-12T19:06:53.593Z,85472.81
2023-03-12T19:09:20.950Z,85501.72
2023-03-12T19:11:49.019Z,85560.06
2023-03-12T19:14:16.433Z,85533.31
2023-03-12T19:16:43.879Z,85545.72
2023-03-12T19:19:11.088Z,85504.47
2023-03-12T19:21:38.144Z,85561.44
2023-03-12T19:24:05.354Z,85549.75
2023-03-12T19:26:32.321Z,85562.09
2023-03-12T19:28:59.359Z,85549.72
2023-03-12T19:31:26.606Z,85574.47
2023-03-12T19:33:53.714Z,85494.03
2023-03-12T19:36:20.706Z,85552.44
2023-03-12T19:38:47.902Z,85571.63
2023-03-12T19:41:16.780Z,85553.09
2023-03-12T19:43:43.861Z,85592.28
2023-03-12T19:46:13.175Z,85563.31
2023-03-12T19:48:40.450Z,85592.25
2023-03-12T19:51:10.396Z,85600.41
2023-03-12T19:53:37.844Z,85553.72
2023-03-12T19:56:05.726Z,85603.88
2023-03-12T19:58:33.181Z,85565.41
2023-03-12T20:01:01.666Z,85605.94
2023-03-12T20:03:31.841Z,85608.00
2023-03-12T20:05:59.403Z,85590.81
2023-03-12T20:08:32.760Z,85580.47
2023-03-12T20:11:04.355Z,85588.03
2023-03-12T20:13:31.778Z,85619.63
2023-03-12T20:15:58.860Z,85577.69
2023-03-12T20:18:25.816Z,85629.16
2023-03-12T20:20:52.725Z,85627.75
2023-03-12T20:23:19.825Z,85600.28
2023-03-12T20:25:50.154Z,85634.63
2023-03-12T20:28:18.098Z,85615.34
2023-03-12T20:30:45.214Z,85633.25
2023-03-12T20:33:12.388Z,85546.69
2023-03-12T20:35:39.757Z,85628.44
2023-03-12T20:38:06.824Z,85628.41
2023-03-12T20:40:34.245Z,85642.84
2023-03-12T20:43:05.133Z,85602.91
2023-03-12T20:45:33.314Z,85644.91
2023-03-12T20:48:00.867Z,85640.09
2023-03-12T20:50:28.621Z,85648.34
2023-03-12T20:52:55.730Z,85648.31
2023-03-12T20:55:22.814Z,85631.81
2023-03-12T20:57:49.828Z,85638.66
2023-03-12T21:00:17.441Z,85630.38
2023-03-12T21:02:44.552Z,85619.34
2023-03-12T21:05:13.752Z,85636.53
2023-03-12T21:07:41.522Z,85578.09
2023-03-12T21:10:09.588Z,85617.94
2023-03-12T21:12:36.646Z,85589.09
2023-03-12T21:15:07.137Z,85637.88
2023-03-12T21:17:36.805Z,85633.06
2023-03-12T21:20:09.635Z,85660.59
2023-03-12T21:22:37.454Z,85576.00
2023-03-12T21:25:05.524Z,85656.41
2023-03-12T21:27:41.372Z,85667.50
2023-03-12T21:30:16.852Z,85593.88
2023-03-12T21:32:44.201Z,85662.66
2023-03-12T21:35:11.491Z,85617.88
2023-03-12T21:37:38.571Z,85617.94
2023-03-12T21:40:06.129Z,85655.09
2023-03-12T21:42:33.771Z,85666.09
2023-03-12T21:45:00.732Z,85626.22
2023-03-12T21:47:27.713Z,85669.59
2023-03-12T21:49:54.784Z,85593.13
2023-03-12T21:52:21.993Z,85657.91
2023-03-12T21:54:51.992Z,85587.72
2023-03-12T21:57:19.040Z,85597.38
2023-03-12T21:59:46.106Z,85666.81
2023-03-12T22:02:16.119Z,85661.97
2023-03-12T22:04:43.254Z,85620.72
2023-03-12T22:07:10.320Z,85629.66
2023-03-12T22:09:37.443Z,85611.03
2023-03-12T22:12:04.729Z,85647.41
2023-03-12T22:14:31.856Z,85632.97
2023-03-12T22:16:58.951Z,85633.00
2023-03-12T22:19:26.091Z,85655.66
2023-03-12T22:21:53.323Z,85682.50
2023-03-12T22:24:20.321Z,85615.13
2023-03-12T22:26:47.454Z,85654.28
2023-03-12T22:29:14.418Z,85599.28
2023-03-12T22:31:41.545Z,85648.13
2023-03-12T22:34:09.035Z,85591.78
2023-03-12T22:36:42.937Z,85653.66
2023-03-12T22:39:09.991Z,85637.19
2023-03-12T22:41:37.148Z,85667.41
2023-03-12T22:44:06.950Z,85609.63
2023-03-12T22:46:34.394Z,85679.81
2023-03-12T22:49:02.707Z,85613.78
2023-03-12T22:51:31.821Z,85671.59
2023-03-12T22:53:59.044Z,85604.84
2023-03-12T22:56:26.826Z,85675.03
2023-03-12T22:58:55.541Z,85673.66
2023-03-12T23:01:23.800Z,85683.97
2023-03-12T23:03:51.221Z,85674.38
2023-03-12T23:06:24.239Z,85692.88
2023-03-12T23:08:52.324Z,85694.25
2023-03-12T23:11:20.952Z,85655.69
2023-03-12T23:13:49.849Z,85685.28
2023-03-12T23:16:19.923Z,85699.69
2023-03-12T23:18:47.843Z,85688.03
2023-03-12T23:21:18.014Z,85668.09
2023-03-12T23:23:45.642Z,85683.84
2023-03-12T23:26:21.976Z,85604.09
2023-03-12T23:28:51.344Z,85668.72
2023-03-12T23:31:18.543Z,85701.75
2023-03-12T23:33:45.627Z,85685.91
2023-03-12T23:36:15.534Z,85710.69
2023-03-12T23:38:43.518Z,85720.94
2023-03-12T23:41:15.527Z,85718.22
2023-03-12T23:43:45.882Z,85718.22
2023-03-12T23:46:14.419Z,85668.66
2023-03-12T23:48:41.680Z,85692.00
2023-03-12T23:51:11.873Z,85705.75
2023-03-12T23:53:40.295Z,85697.47
2023-03-12T23:56:10.648Z,85719.53
2023-03-12T23:58:37.685Z,85653.38
